sensor_id;sensor_type;location;lat;lon;timestamp;pressure;altitude;pressure_sealevel;temperature;humidity
37312;BME280;23197;53.912;9.138;2022-09-09T00:03:45;100743.78;;;18.37;72.82
37312;BME280;23197;53.912;9.138;2022-09-09T00:09:20;100732.69;;;18.33;72.50
37312;BME280;23197;53.912;9.138;2022-09-09T00:12:04;100737.28;;;18.31;72.58
37312;BME280;23197;53.912;9.138;2022-09-09T00:14:48;100733.94;;;18.29;72.57
37312;BME280;23197;53.912;9.138;2022-09-09T00:17:33;100730.63;;;18.27;72.68
37312;BME280;23197;53.912;9.138;2022-09-09T00:23:14;100722.16;;;18.24;72.72
37312;BME280;23197;53.912;9.138;2022-09-09T00:28:48;100723.81;;;18.25;72.82
37312;BME280;23197;53.912;9.138;2022-09-09T00:31:22;100728.97;;;18.26;72.90
37312;BME280;23197;53.912;9.138;2022-09-09T00:33:49;100716.41;;;18.28;72.89
37312;BME280;23197;53.912;9.138;2022-09-09T00:36:23;100720.22;;;18.26;73.02
37312;BME280;23197;53.912;9.138;2022-09-09T00:39:00;100730.31;;;18.30;72.92
37312;BME280;23197;53.912;9.138;2022-09-09T00:41:42;100718.91;;;18.30;72.88
37312;BME280;23197;53.912;9.138;2022-09-09T00:49:38;100718.69;;;18.23;72.50
37312;BME280;23197;53.912;9.138;2022-09-09T00:57:35;100725.78;;;18.23;72.50
37312;BME280;23197;53.912;9.138;2022-09-09T01:00:25;100724.28;;;18.20;72.56
37312;BME280;23197;53.912;9.138;2022-09-09T01:17:04;100721.53;;;18.12;72.87
37312;BME280;23197;53.912;9.138;2022-09-09T01:22:33;100729.09;;;18.07;72.72
37312;BME280;23197;53.912;9.138;2022-09-09T01:28:01;100722.44;;;18.03;72.47
37312;BME280;23197;53.912;9.138;2022-09-09T01:30:38;100724.69;;;17.98;72.31
37312;BME280;23197;53.912;9.138;2022-09-09T01:33:05;100729.97;;;17.98;72.39
37312;BME280;23197;53.912;9.138;2022-09-09T01:35:53;100722.34;;;17.95;72.33
37312;BME280;23197;53.912;9.138;2022-09-09T01:38:25;100719.72;;;17.95;72.46
37312;BME280;23197;53.912;9.138;2022-09-09T01:40:52;100725.00;;;17.95;72.40
37312;BME280;23197;53.912;9.138;2022-09-09T01:43:23;100727.66;;;17.95;72.45
37312;BME280;23197;53.912;9.138;2022-09-09T01:45:55;100724.16;;;17.94;72.53
37312;BME280;23197;53.912;9.138;2022-09-09T01:48:22;100721.38;;;17.96;72.46
37312;BME280;23197;53.912;9.138;2022-09-09T01:51:00;100717.75;;;17.97;72.37
37312;BME280;23197;53.912;9.138;2022-09-09T01:53:26;100717.75;;;17.97;72.37
37312;BME280;23197;53.912;9.138;2022-09-09T01:55:57;100722.34;;;17.95;72.26
37312;BME280;23197;53.912;9.138;2022-09-09T01:58:33;100721.38;;;17.96;72.06
37312;BME280;23197;53.912;9.138;2022-09-09T02:01:27;100717.34;;;17.92;72.50
37312;BME280;23197;53.912;9.138;2022-09-09T02:04:04;100717.06;;;17.95;72.25
37312;BME280;23197;53.912;9.138;2022-09-09T02:06:35;100718.88;;;17.94;72.23
37312;BME280;23197;53.912;9.138;2022-09-09T02:09:24;100719.88;;;17.93;72.25
37312;BME280;23197;53.912;9.138;2022-09-09T02:11:57;100718.34;;;17.90;72.10
37312;BME280;23197;53.912;9.138;2022-09-09T02:14:40;100718.34;;;17.90;72.13
37312;BME280;23197;53.912;9.138;2022-09-09T02:17:12;100705.13;;;17.90;72.14
37312;BME280;23197;53.912;9.138;2022-09-09T02:19:59;100708.59;;;17.91;71.87
37312;BME280;23197;53.912;9.138;2022-09-09T02:22:39;100698.31;;;17.88;72.00
37312;BME280;23197;53.912;9.138;2022-09-09T02:25:08;100703.72;;;17.86;71.99
37312;BME280;23197;53.912;9.138;2022-09-09T02:27:35;100705.53;;;17.86;72.05
37312;BME280;23197;53.912;9.138;2022-09-09T02:30:02;100705.53;;;17.86;72.02
37312;BME280;23197;53.912;9.138;2022-09-09T02:32:38;100704.72;;;17.85;72.15
37312;BME280;23197;53.912;9.138;2022-09-09T02:35:09;100700.56;;;17.83;72.06
37312;BME280;23197;53.912;9.138;2022-09-09T02:37:39;100698.91;;;17.82;72.05
37312;BME280;23197;53.912;9.138;2022-09-09T02:40:07;100699.75;;;17.82;72.05
37312;BME280;23197;53.912;9.138;2022-09-09T02:42:44;100703.50;;;17.80;72.23
37312;BME280;23197;53.912;9.138;2022-09-09T02:45:13;100694.72;;;17.79;72.19
37312;BME280;23197;53.912;9.138;2022-09-09T02:47:53;100702.00;;;17.77;72.19
37312;BME280;23197;53.912;9.138;2022-09-09T02:53:18;100710.91;;;17.76;72.16
37312;BME280;23197;53.912;9.138;2022-09-09T02:55:55;100705.63;;;17.76;72.36
37312;BME280;23197;53.912;9.138;2022-09-09T02:58:23;100702.97;;;17.76;72.50
37312;BME280;23197;53.912;9.138;2022-09-09T03:00:57;100702.81;;;17.78;72.51
37312;BME280;23197;53.912;9.138;2022-09-09T03:03:24;100702.97;;;17.76;72.28
37312;BME280;23197;53.912;9.138;2022-09-09T03:05:50;100705.91;;;17.73;72.18
37312;BME280;23197;53.912;9.138;2022-09-09T03:08:15;100709.53;;;17.72;71.88
37312;BME280;23197;53.912;9.138;2022-09-09T03:10:42;100706.16;;;17.70;71.83
37312;BME280;23197;53.912;9.138;2022-09-09T03:13:07;100706.47;;;17.67;72.05
37312;BME280;23197;53.912;9.138;2022-09-09T03:15:37;100703.13;;;17.65;71.96
37312;BME280;23197;53.912;9.138;2022-09-09T03:18:08;100699.81;;;17.63;72.10
37312;BME280;23197;53.912;9.138;2022-09-09T03:20:34;100708.03;;;17.60;72.01
37312;BME280;23197;53.912;9.138;2022-09-09T03:23:00;100717.63;;;17.61;72.26
37312;BME280;23197;53.912;9.138;2022-09-09T03:25:26;100724.75;;;17.60;72.33
37312;BME280;23197;53.912;9.138;2022-09-09T03:27:53;100726.50;;;17.60;72.37
37312;BME280;23197;53.912;9.138;2022-09-09T03:30:25;100737.25;;;17.58;72.63
37312;BME280;23197;53.912;9.138;2022-09-09T03:32:51;100730.97;;;17.59;72.56
37312;BME280;23197;53.912;9.138;2022-09-09T03:35:17;100730.16;;;17.59;72.96
37312;BME280;23197;53.912;9.138;2022-09-09T03:37:43;100732.94;;;17.57;72.91
37312;BME280;23197;53.912;9.138;2022-09-09T03:40:11;100733.78;;;17.58;72.87
37312;BME280;23197;53.912;9.138;2022-09-09T03:42:38;100729.47;;;17.57;72.97
37312;BME280;23197;53.912;9.138;2022-09-09T03:45:05;100719.88;;;17.56;72.93
37312;BME280;23197;53.912;9.138;2022-09-09T03:47:32;100723.34;;;17.56;73.09
37312;BME280;23197;53.912;9.138;2022-09-09T03:50:05;100725.16;;;17.56;72.95
37312;BME280;23197;53.912;9.138;2022-09-09T03:52:38;100718.22;;;17.55;72.98
37312;BME280;23197;53.912;9.138;2022-09-09T03:55:07;100719.16;;;17.54;72.67
37312;BME280;23197;53.912;9.138;2022-09-09T03:57:33;100728.06;;;17.53;72.79
37312;BME280;23197;53.912;9.138;2022-09-09T04:00:05;100724.59;;;17.52;72.83
37312;BME280;23197;53.912;9.138;2022-09-09T04:02:41;100727.97;;;17.54;73.00
37312;BME280;23197;53.912;9.138;2022-09-09T04:05:09;100716.69;;;17.52;73.16
37312;BME280;23197;53.912;9.138;2022-09-09T04:07:36;100715.03;;;17.51;73.27
37312;BME280;23197;53.912;9.138;2022-09-09T04:10:02;100716.00;;;17.50;73.14
37312;BME280;23197;53.912;9.138;2022-09-09T04:12:28;100711.56;;;17.51;72.98
37312;BME280;23197;53.912;9.138;2022-09-09T04:14:54;100716.84;;;17.51;73.15
37312;BME280;23197;53.912;9.138;2022-09-09T04:17:20;100708.22;;;17.49;73.04
37312;BME280;23197;53.912;9.138;2022-09-09T04:19:45;100706.25;;;17.51;72.96
37312;BME280;23197;53.912;9.138;2022-09-09T04:22:12;100713.22;;;17.52;72.99
37312;BME280;23197;53.912;9.138;2022-09-09T04:24:37;100716.53;;;17.54;72.99
37312;BME280;23197;53.912;9.138;2022-09-09T04:27:03;100714.88;;;17.53;72.93
37312;BME280;23197;53.912;9.138;2022-09-09T04:29:30;100721.81;;;17.54;72.86
37312;BME280;23197;53.912;9.138;2022-09-09T04:31:55;100720.16;;;17.53;72.99
37312;BME280;23197;53.912;9.138;2022-09-09T04:34:21;100726.28;;;17.53;73.08
37312;BME280;23197;53.912;9.138;2022-09-09T04:36:46;100735.72;;;17.56;73.07
37312;BME280;23197;53.912;9.138;2022-09-09T04:39:12;100744.66;;;17.55;73.19
37312;BME280;23197;53.912;9.138;2022-09-09T04:41:38;100740.19;;;17.55;73.46
37312;BME280;23197;53.912;9.138;2022-09-09T04:44:04;100741.84;;;17.56;73.51
37312;BME280;23197;53.912;9.138;2022-09-09T04:46:31;100745.16;;;17.58;73.37
37312;BME280;23197;53.912;9.138;2022-09-09T04:48:57;100745.47;;;17.55;73.32
37312;BME280;23197;53.912;9.138;2022-09-09T04:51:26;100743.66;;;17.56;73.54
37312;BME280;23197;53.912;9.138;2022-09-09T04:53:53;100746.31;;;17.56;73.39
37312;BME280;23197;53.912;9.138;2022-09-09T04:56:19;100747.97;;;17.57;73.37
37312;BME280;23197;53.912;9.138;2022-09-09T04:58:50;100742.69;;;17.57;73.03
37312;BME280;23197;53.912;9.138;2022-09-09T05:01:18;100749.94;;;17.55;72.81
37312;BME280;23197;53.912;9.138;2022-09-09T05:03:46;100745.59;;;17.54;72.88
37312;BME280;23197;53.912;9.138;2022-09-09T05:06:17;100739.63;;;17.52;72.94
37312;BME280;23197;53.912;9.138;2022-09-09T05:08:44;100735.03;;;17.54;73.00
37312;BME280;23197;53.912;9.138;2022-09-09T05:11:30;100752.84;;;17.52;73.00
37312;BME280;23197;53.912;9.138;2022-09-09T05:14:19;100753.53;;;17.54;72.89
37312;BME280;23197;53.912;9.138;2022-09-09T05:16:45;100749.94;;;17.55;73.08
37312;BME280;23197;53.912;9.138;2022-09-09T05:19:12;100756.16;;;17.54;73.05
37312;BME280;23197;53.912;9.138;2022-09-09T05:21:43;100754.50;;;17.53;72.85
37312;BME280;23197;53.912;9.138;2022-09-09T05:24:08;100757.16;;;17.53;72.84
37312;BME280;23197;53.912;9.138;2022-09-09T05:26:35;100757.16;;;17.53;72.63
37312;BME280;23197;53.912;9.138;2022-09-09T05:29:01;100757.16;;;17.53;72.80
37312;BME280;23197;53.912;9.138;2022-09-09T05:31:29;100759.66;;;17.54;73.00
37312;BME280;23197;53.912;9.138;2022-09-09T05:33:55;100754.91;;;17.58;72.91
37312;BME280;23197;53.912;9.138;2022-09-09T05:36:21;100761.72;;;17.60;73.04
37312;BME280;23197;53.912;9.138;2022-09-09T05:38:51;100763.91;;;17.65;73.30
37312;BME280;23197;53.912;9.138;2022-09-09T05:41:19;100766.28;;;17.68;73.36
37312;BME280;23197;53.912;9.138;2022-09-09T05:43:46;100773.66;;;17.74;73.65
37312;BME280;23197;53.912;9.138;2022-09-09T05:48:42;100774.59;;;17.83;73.92
37312;BME280;23197;53.912;9.138;2022-09-09T05:51:11;100781.28;;;17.87;73.98
37312;BME280;23197;53.912;9.138;2022-09-09T05:53:38;100775.53;;;17.92;74.01
37312;BME280;23197;53.912;9.138;2022-09-09T05:56:06;100776.75;;;17.97;74.12
37312;BME280;23197;53.912;9.138;2022-09-09T05:58:34;100774.50;;;18.02;74.24
37312;BME280;23197;53.912;9.138;2022-09-09T06:01:05;100780.03;;;18.09;74.30
37312;BME280;23197;53.912;9.138;2022-09-09T06:03:34;100778.03;;;18.21;74.67
37312;BME280;23197;53.912;9.138;2022-09-09T06:06:01;100786.28;;;18.35;75.19
37312;BME280;23197;53.912;9.138;2022-09-09T06:08:27;100781.75;;;18.46;75.37
37312;BME280;23197;53.912;9.138;2022-09-09T06:10:53;100775.94;;;18.60;75.46
37312;BME280;23197;53.912;9.138;2022-09-09T06:13:19;100778.25;;;18.73;75.40
37312;BME280;23197;53.912;9.138;2022-09-09T06:15:51;100775.34;;;18.84;75.38
37312;BME280;23197;53.912;9.138;2022-09-09T06:18:18;100781.06;;;18.97;75.24
37312;BME280;23197;53.912;9.138;2022-09-09T06:20:55;100782.97;;;19.05;74.77
37312;BME280;23197;53.912;9.138;2022-09-09T06:23:20;100787.34;;;19.14;74.54
37312;BME280;23197;53.912;9.138;2022-09-09T06:25:46;100790.88;;;19.22;74.55
37312;BME280;23197;53.912;9.138;2022-09-09T06:28:12;100786.59;;;19.30;74.35
37312;BME280;23197;53.912;9.138;2022-09-09T06:30:38;100787.50;;;19.38;74.18
37312;BME280;23197;53.912;9.138;2022-09-09T06:33:05;100787.88;;;19.43;74.16
37312;BME280;23197;53.912;9.138;2022-09-09T06:35:30;100781.91;;;19.49;74.03
37312;BME280;23197;53.912;9.138;2022-09-09T06:37:56;100782.88;;;19.66;75.14
37312;BME280;23197;53.912;9.138;2022-09-09T06:40:24;100790.34;;;20.05;77.68
37312;BME280;23197;53.912;9.138;2022-09-09T06:42:50;100783.53;;;20.53;80.19
37312;BME280;23197;53.912;9.138;2022-09-09T06:45:32;100789.03;;;21.00;80.08
37312;BME280;23197;53.912;9.138;2022-09-09T06:47:58;100790.50;;;21.27;78.33
37312;BME280;23197;53.912;9.138;2022-09-09T06:50:23;100791.00;;;21.47;77.02
37312;BME280;23197;53.912;9.138;2022-09-09T06:52:49;100794.97;;;21.59;75.86
37312;BME280;23197;53.912;9.138;2022-09-09T06:55:15;100788.28;;;21.72;75.76
37312;BME280;23197;53.912;9.138;2022-09-09T06:57:41;100793.19;;;21.91;75.84
37312;BME280;23197;53.912;9.138;2022-09-09T07:00:15;100795.06;;;22.21;76.11
37312;BME280;23197;53.912;9.138;2022-09-09T07:02:40;100797.59;;;22.46;75.69
37312;BME280;23197;53.912;9.138;2022-09-09T07:05:08;100805.13;;;22.65;74.92
37312;BME280;23197;53.912;9.138;2022-09-09T07:07:34;100805.25;;;22.72;73.88
37312;BME280;23197;53.912;9.138;2022-09-09T07:10:00;100809.56;;;22.73;72.90
37312;BME280;23197;53.912;9.138;2022-09-09T07:12:26;100819.38;;;22.72;72.33
37312;BME280;23197;53.912;9.138;2022-09-09T07:14:56;100819.09;;;22.67;71.55
37312;BME280;23197;53.912;9.138;2022-09-09T07:17:22;100811.78;;;22.61;71.05
37312;BME280;23197;53.912;9.138;2022-09-09T07:19:47;100818.19;;;22.52;70.80
37312;BME280;23197;53.912;9.138;2022-09-09T07:22:14;100827.06;;;22.44;71.01
37312;BME280;23197;53.912;9.138;2022-09-09T07:24:41;100823.59;;;22.36;70.22
37312;BME280;23197;53.912;9.138;2022-09-09T07:27:06;100827.31;;;22.27;70.62
37312;BME280;23197;53.912;9.138;2022-09-09T07:29:32;100818.38;;;22.19;70.29
37312;BME280;23197;53.912;9.138;2022-09-09T07:31:58;100820.25;;;22.11;70.58
37312;BME280;23197;53.912;9.138;2022-09-09T07:34:29;100818.06;;;22.06;70.73
37312;BME280;23197;53.912;9.138;2022-09-09T07:36:55;100825.09;;;21.99;70.75
37312;BME280;23197;53.912;9.138;2022-09-09T07:39:22;100824.78;;;21.94;71.03
37312;BME280;23197;53.912;9.138;2022-09-09T07:41:51;100832.75;;;21.94;71.14
37312;BME280;23197;53.912;9.138;2022-09-09T07:44:23;100820.09;;;21.96;71.36
37312;BME280;23197;53.912;9.138;2022-09-09T07:46:56;100826.38;;;22.03;72.02
37312;BME280;23197;53.912;9.138;2022-09-09T07:49:27;100826.03;;;22.14;72.12
37312;BME280;23197;53.912;9.138;2022-09-09T07:51:53;100828.66;;;22.23;72.44
37312;BME280;23197;53.912;9.138;2022-09-09T07:54:19;100831.31;;;22.31;72.43
37312;BME280;23197;53.912;9.138;2022-09-09T07:56:47;100834.03;;;22.45;72.56
37312;BME280;23197;53.912;9.138;2022-09-09T07:59:15;100834.66;;;22.79;73.76
37312;BME280;23197;53.912;9.138;2022-09-09T08:01:45;100837.69;;;23.21;74.70
37312;BME280;23197;53.912;9.138;2022-09-09T08:04:18;100833.44;;;23.79;76.06
37312;BME280;23197;53.912;9.138;2022-09-09T08:06:51;100842.09;;;24.41;76.66
37312;BME280;23197;53.912;9.138;2022-09-09T08:09:19;100819.84;;;25.19;77.01
37312;BME280;23197;53.912;9.138;2022-09-09T08:11:47;100827.34;;;26.00;77.05
37312;BME280;23197;53.912;9.138;2022-09-09T08:14:13;100824.78;;;26.94;76.22
37312;BME280;23197;53.912;9.138;2022-09-09T08:16:43;100826.97;;;27.83;75.79
37312;BME280;23197;53.912;9.138;2022-09-09T08:19:09;100838.88;;;28.58;74.06
37312;BME280;23197;53.912;9.138;2022-09-09T08:21:37;100838.78;;;29.28;72.84
37312;BME280;23197;53.912;9.138;2022-09-09T08:24:04;100832.72;;;29.58;71.05
37312;BME280;23197;53.912;9.138;2022-09-09T08:26:35;100836.47;;;29.75;70.48
37312;BME280;23197;53.912;9.138;2022-09-09T08:29:04;100834.88;;;29.86;69.83
37312;BME280;23197;53.912;9.138;2022-09-09T08:31:34;100843.22;;;29.84;68.79
37312;BME280;23197;53.912;9.138;2022-09-09T08:34:03;100845.13;;;29.59;66.73
37312;BME280;23197;53.912;9.138;2022-09-09T08:36:35;100844.19;;;29.28;65.41
37312;BME280;23197;53.912;9.138;2022-09-09T08:39:03;100841.97;;;29.18;66.03
37312;BME280;23197;53.912;9.138;2022-09-09T08:44:11;100859.75;;;28.88;65.50
37312;BME280;23197;53.912;9.138;2022-09-09T08:46:49;100863.25;;;28.63;64.48
37312;BME280;23197;53.912;9.138;2022-09-09T08:52:13;100861.78;;;28.16;64.90
37312;BME280;23197;53.912;9.138;2022-09-09T08:54:41;100862.88;;;27.95;64.48
37312;BME280;23197;53.912;9.138;2022-09-09T08:57:14;100865.25;;;27.72;64.67
37312;BME280;23197;53.912;9.138;2022-09-09T08:59:40;100859.22;;;27.70;65.21
37312;BME280;23197;53.912;9.138;2022-09-09T09:02:26;100856.53;;;27.56;66.05
37312;BME280;23197;53.912;9.138;2022-09-09T09:13:19;100869.59;;;29.57;69.25
37312;BME280;23197;53.912;9.138;2022-09-09T09:15:52;100870.00;;;29.61;67.98
37312;BME280;23197;53.912;9.138;2022-09-09T09:18:19;100857.94;;;29.63;67.14
37312;BME280;23197;53.912;9.138;2022-09-09T09:23:42;100860.97;;;30.10;65.79
37312;BME280;23197;53.912;9.138;2022-09-09T09:26:11;100867.84;;;30.24;66.62
37312;BME280;23197;53.912;9.138;2022-09-09T09:28:39;100862.97;;;30.63;66.80
37312;BME280;23197;53.912;9.138;2022-09-09T09:31:11;100864.28;;;31.14;67.84
37312;BME280;23197;53.912;9.138;2022-09-09T09:33:56;100860.16;;;32.05;67.71
37312;BME280;23197;53.912;9.138;2022-09-09T09:36:56;100865.78;;;33.01;66.64
37312;BME280;23197;53.912;9.138;2022-09-09T09:39:34;100869.97;;;33.59;65.36
37312;BME280;23197;53.912;9.138;2022-09-09T09:42:13;100863.38;;;34.16;64.48
37312;BME280;23197;53.912;9.138;2022-09-09T09:44:41;100860.88;;;34.85;63.72
37312;BME280;23197;53.912;9.138;2022-09-09T09:47:17;100863.72;;;35.00;62.81
37312;BME280;23197;53.912;9.138;2022-09-09T09:49:56;100864.38;;;35.13;61.11
37312;BME280;23197;53.912;9.138;2022-09-09T09:52:29;100863.72;;;35.38;59.74
37312;BME280;23197;53.912;9.138;2022-09-09T09:54:58;100864.03;;;35.41;58.76
37312;BME280;23197;53.912;9.138;2022-09-09T09:57:29;100858.59;;;35.41;57.67
37312;BME280;23197;53.912;9.138;2022-09-09T10:00:16;100859.31;;;35.69;57.05
37312;BME280;23197;53.912;9.138;2022-09-09T10:02:49;100854.25;;;35.87;56.62
37312;BME280;23197;53.912;9.138;2022-09-09T10:05:24;100863.09;;;36.20;54.64
37312;BME280;23197;53.912;9.138;2022-09-09T10:10:48;100855.88;;;36.82;53.32
37312;BME280;23197;53.912;9.138;2022-09-09T10:13:20;100868.94;;;37.31;51.46
37312;BME280;23197;53.912;9.138;2022-09-09T10:24:36;100855.97;;;38.47;47.82
37312;BME280;23197;53.912;9.138;2022-09-09T10:26:52;100858.44;;;38.48;46.98
37312;BME280;23197;53.912;9.138;2022-09-09T10:46:29;100849.63;;;39.78;42.15
37312;BME280;23197;53.912;9.138;2022-09-09T10:57:29;100840.16;;;39.41;36.83
37312;BME280;23197;53.912;9.138;2022-09-09T11:00:04;100854.19;;;39.82;39.14
37312;BME280;23197;53.912;9.138;2022-09-09T11:02:33;100840.09;;;39.94;36.31
37312;BME280;23197;53.912;9.138;2022-09-09T11:05:10;100842.50;;;39.53;35.81
37312;BME280;23197;53.912;9.138;2022-09-09T11:07:42;100846.16;;;39.19;35.06
37312;BME280;23197;53.912;9.138;2022-09-09T11:10:21;100846.25;;;39.04;34.84
37312;BME280;23197;53.912;9.138;2022-09-09T11:12:50;100844.34;;;39.33;35.08
37312;BME280;23197;53.912;9.138;2022-09-09T11:15:45;100851.97;;;39.66;35.44
37312;BME280;23197;53.912;9.138;2022-09-09T11:18:20;100839.59;;;39.68;34.66
37312;BME280;23197;53.912;9.138;2022-09-09T11:20:57;100849.56;;;40.02;34.31
37312;BME280;23197;53.912;9.138;2022-09-09T11:23:38;100846.22;;;40.48;34.79
37312;BME280;23197;53.912;9.138;2022-09-09T11:26:07;100839.63;;;40.81;32.16
37312;BME280;23197;53.912;9.138;2022-09-09T11:29:36;100835.31;;;40.94;31.63
37312;BME280;23197;53.912;9.138;2022-09-09T11:34:42;100843.69;;;40.32;34.37
37312;BME280;23197;53.912;9.138;2022-09-09T11:40:20;100835.47;;;40.70;30.44
37312;BME280;23197;53.912;9.138;2022-09-09T11:42:47;100848.78;;;40.39;31.52
37312;BME280;23197;53.912;9.138;2022-09-09T11:45:26;100842.47;;;40.01;31.77
37312;BME280;23197;53.912;9.138;2022-09-09T11:47:56;100845.25;;;39.96;30.61
37312;BME280;23197;53.912;9.138;2022-09-09T11:52:48;100847.91;;;39.34;30.56
37312;BME280;23197;53.912;9.138;2022-09-09T11:57:57;100845.16;;;38.32;31.45
37312;BME280;23197;53.912;9.138;2022-09-09T12:02:58;100833.56;;;38.00;31.08
37312;BME280;23197;53.912;9.138;2022-09-09T12:05:34;100836.22;;;37.41;32.10
37312;BME280;23197;53.912;9.138;2022-09-09T12:08:02;100834.63;;;36.79;32.17
37312;BME280;23197;53.912;9.138;2022-09-09T12:10:38;100840.06;;;36.79;33.01
37312;BME280;23197;53.912;9.138;2022-09-09T12:13:15;100839.00;;;37.05;32.73
37312;BME280;23197;53.912;9.138;2022-09-09T12:15:52;100833.53;;;36.85;33.18
37312;BME280;23197;53.912;9.138;2022-09-09T12:18:36;100831.06;;;36.83;33.31
37312;BME280;23197;53.912;9.138;2022-09-09T12:23:35;100829.16;;;36.63;33.51
37312;BME280;23197;53.912;9.138;2022-09-09T12:26:19;100831.09;;;36.73;31.57
37312;BME280;23197;53.912;9.138;2022-09-09T12:34:27;100821.25;;;36.41;34.72
37312;BME280;23197;53.912;9.138;2022-09-09T12:37:05;100824.16;;;36.25;34.55
37312;BME280;23197;53.912;9.138;2022-09-09T12:39:42;100820.56;;;35.94;33.95
37312;BME280;23197;53.912;9.138;2022-09-09T12:42:19;100819.59;;;35.63;34.63
37312;BME280;23197;53.912;9.138;2022-09-09T12:44:58;100811.44;;;35.20;34.33
37312;BME280;23197;53.912;9.138;2022-09-09T12:47:42;100824.66;;;34.74;34.66
37312;BME280;23197;53.912;9.138;2022-09-09T12:52:42;100825.81;;;34.29;35.57
37312;BME280;23197;53.912;9.138;2022-09-09T12:55:18;100809.31;;;34.36;35.88
37312;BME280;23197;53.912;9.138;2022-09-09T12:57:44;100807.09;;;34.55;36.24
37312;BME280;23197;53.912;9.138;2022-09-09T13:00:16;100812.69;;;34.70;36.06
37312;BME280;23197;53.912;9.138;2022-09-09T13:02:51;100803.84;;;34.85;36.72
37312;BME280;23197;53.912;9.138;2022-09-09T13:07:47;100799.25;;;34.91;36.73
37312;BME280;23197;53.912;9.138;2022-09-09T13:10:15;100796.56;;;34.59;36.29
37312;BME280;23197;53.912;9.138;2022-09-09T13:12:44;100799.97;;;34.22;36.07
37312;BME280;23197;53.912;9.138;2022-09-09T13:15:16;100799.75;;;33.80;36.04
37312;BME280;23197;53.912;9.138;2022-09-09T13:17:50;100809.28;;;33.43;36.84
37312;BME280;23197;53.912;9.138;2022-09-09T13:20:18;100813.66;;;33.11;37.57
37312;BME280;23197;53.912;9.138;2022-09-09T13:22:45;100812.31;;;32.80;37.42
37312;BME280;23197;53.912;9.138;2022-09-09T13:27:40;100813.38;;;32.05;37.97
37312;BME280;23197;53.912;9.138;2022-09-09T13:30:24;100817.81;;;31.59;37.69
37312;BME280;23197;53.912;9.138;2022-09-09T13:35:55;100814.22;;;30.76;39.46
37312;BME280;23197;53.912;9.138;2022-09-09T13:38:21;100816.72;;;30.48;39.64
37312;BME280;23197;53.912;9.138;2022-09-09T13:40:54;100812.84;;;30.14;40.07
37312;BME280;23197;53.912;9.138;2022-09-09T13:43:23;100824.00;;;29.81;41.18
37312;BME280;23197;53.912;9.138;2022-09-09T13:45:57;100822.59;;;29.10;44.10
37312;BME280;23197;53.912;9.138;2022-09-09T13:48:23;100813.34;;;28.36;46.31
37312;BME280;23197;53.912;9.138;2022-09-09T13:50:57;100801.19;;;27.69;48.60
37312;BME280;23197;53.912;9.138;2022-09-09T13:53:23;100812.81;;;27.23;49.69
37312;BME280;23197;53.912;9.138;2022-09-09T13:55:49;100807.84;;;26.80;51.04
37312;BME280;23197;53.912;9.138;2022-09-09T13:58:16;100812.50;;;26.45;52.28
37312;BME280;23197;53.912;9.138;2022-09-09T14:00:45;100810.72;;;26.11;53.58
37312;BME280;23197;53.912;9.138;2022-09-09T14:03:12;100807.09;;;25.84;54.41
37312;BME280;23197;53.912;9.138;2022-09-09T14:05:37;100810.03;;;25.61;55.54
37312;BME280;23197;53.912;9.138;2022-09-09T14:08:05;100825.53;;;25.37;56.53
37312;BME280;23197;53.912;9.138;2022-09-09T14:10:31;100834.25;;;25.18;57.73
37312;BME280;23197;53.912;9.138;2022-09-09T14:12:56;100844.53;;;25.00;58.74
37312;BME280;23197;53.912;9.138;2022-09-09T14:15:22;100844.97;;;24.82;59.34
37312;BME280;23197;53.912;9.138;2022-09-09T14:17:47;100854.84;;;24.60;59.65
37312;BME280;23197;53.912;9.138;2022-09-09T14:20:14;100852.09;;;24.39;60.47
37312;BME280;23197;53.912;9.138;2022-09-09T14:22:40;100854.16;;;24.22;61.10
37312;BME280;23197;53.912;9.138;2022-09-09T14:25:07;100857.59;;;24.01;60.71
37312;BME280;23197;53.912;9.138;2022-09-09T14:27:32;100864.22;;;23.75;60.54
37312;BME280;23197;53.912;9.138;2022-09-09T14:29:58;100868.41;;;23.55;60.98
37312;BME280;23197;53.912;9.138;2022-09-09T14:32:25;100872.59;;;23.35;61.68
37312;BME280;23197;53.912;9.138;2022-09-09T14:34:50;100879.50;;;23.21;61.88
37312;BME280;23197;53.912;9.138;2022-09-09T14:37:16;100877.81;;;23.05;61.73
37312;BME280;23197;53.912;9.138;2022-09-09T14:39:42;100877.75;;;22.90;62.45
37312;BME280;23197;53.912;9.138;2022-09-09T14:42:12;100880.66;;;22.72;62.35
37312;BME280;23197;53.912;9.138;2022-09-09T14:44:38;100885.09;;;22.57;62.61
37312;BME280;23197;53.912;9.138;2022-09-09T14:47:07;100879.50;;;22.44;62.83
37312;BME280;23197;53.912;9.138;2022-09-09T14:49:36;100891.19;;;22.35;63.49
37312;BME280;23197;53.912;9.138;2022-09-09T14:52:03;100879.94;;;22.25;63.63
37312;BME280;23197;53.912;9.138;2022-09-09T14:54:30;100882.59;;;22.16;63.73
37312;BME280;23197;53.912;9.138;2022-09-09T14:56:55;100878.28;;;22.07;63.84
37312;BME280;23197;53.912;9.138;2022-09-09T14:59:22;100878.97;;;22.01;64.11
37312;BME280;23197;53.912;9.138;2022-09-09T15:01:47;100886.31;;;21.99;64.81
37312;BME280;23197;53.912;9.138;2022-09-09T15:04:13;100891.94;;;21.96;64.92
37312;BME280;23197;53.912;9.138;2022-09-09T15:06:40;100893.97;;;21.94;65.15
37312;BME280;23197;53.912;9.138;2022-09-09T15:09:07;100891.66;;;21.91;65.69
37312;BME280;23197;53.912;9.138;2022-09-09T15:11:35;100885.84;;;21.87;65.54
37312;BME280;23197;53.912;9.138;2022-09-09T15:14:04;100881.00;;;21.83;66.03
37312;BME280;23197;53.912;9.138;2022-09-09T15:16:31;100882.38;;;21.79;66.03
37312;BME280;23197;53.912;9.138;2022-09-09T15:19:00;100877.03;;;21.79;66.10
37312;BME280;23197;53.912;9.138;2022-09-09T15:21:32;100871.03;;;21.77;66.36